createdAt,value
2018-12-17T00:02:03.191Z,8.80
2018-12-17T00:04:32.281Z,11.47
2018-12-17T00:07:01.030Z,12.53
2018-12-17T00:09:29.739Z,9.03
2018-12-17T00:11:58.426Z,10.33
2018-12-17T00:14:27.215Z,9.33
2018-12-17T00:16:55.950Z,8.93
2018-12-17T00:19:24.990Z,9.23
2018-12-17T00:21:53.732Z,13.63
2018-12-17T00:24:22.603Z,9.33
2018-12-17T00:26:51.465Z,7.73
2018-12-17T00:29:20.285Z,8.77
2018-12-17T00:31:49.149Z,10.17
2018-12-17T00:34:18.017Z,10.50
2018-12-17T00:36:46.791Z,8.40
2018-12-17T00:39:15.802Z,7.80
2018-12-17T00:41:44.675Z,8.87
2018-12-17T00:44:13.787Z,9.07
2018-12-17T00:46:42.673Z,8.53
2018-12-17T00:49:11.441Z,10.00
2018-12-17T00:51:40.214Z,10.23
2018-12-17T00:54:08.731Z,10.27
2018-12-17T00:56:37.515Z,12.97
2018-12-17T00:59:06.366Z,12.80
2018-12-17T01:01:35.083Z,11.43
2018-12-17T01:04:03.787Z,11.57
2018-12-17T01:06:32.539Z,10.83
2018-12-17T01:09:01.253Z,8.77
2018-12-17T01:11:30.044Z,8.80
2018-12-17T01:13:58.828Z,10.43
2018-12-17T01:16:27.794Z,12.17
2018-12-17T01:18:56.506Z,10.73
2018-12-17T01:21:25.679Z,10.53
2018-12-17T01:23:54.392Z,9.90
2018-12-17T01:26:23.191Z,10.67
2018-12-17T01:28:52.047Z,9.67
2018-12-17T01:31:20.804Z,11.13
2018-12-17T01:33:49.396Z,9.60
2018-12-17T01:36:18.399Z,11.17
2018-12-17T01:38:47.282Z,10.50
2018-12-17T01:41:15.993Z,12.37
2018-12-17T01:43:44.789Z,13.17
2018-12-17T01:46:13.393Z,12.63
2018-12-17T01:48:42.039Z,14.27
2018-12-17T01:51:10.782Z,11.67
2018-12-17T01:53:39.532Z,13.17
2018-12-17T01:56:08.407Z,13.30
2018-12-17T01:58:37.247Z,10.90
2018-12-17T02:01:05.896Z,10.60
2018-12-17T02:03:34.585Z,12.33
2018-12-17T02:06:03.421Z,10.67
2018-12-17T02:08:32.169Z,12.07
2018-12-17T02:11:01.026Z,9.80
2018-12-17T02:13:29.935Z,12.03
2018-12-17T02:15:58.621Z,9.27
2018-12-17T02:18:27.506Z,14.70
2018-12-17T02:20:56.349Z,9.53
2018-12-17T02:23:25.358Z,9.43
2018-12-17T02:25:53.871Z,13.53
2018-12-17T02:28:22.761Z,10.20
2018-12-17T02:30:51.666Z,11.33
2018-12-17T02:33:20.391Z,10.47
2018-12-17T02:35:49.013Z,9.37
2018-12-17T02:38:17.770Z,10.70
2018-12-17T02:40:46.392Z,11.20
2018-12-17T02:43:15.181Z,10.20
2018-12-17T02:45:43.798Z,12.23
2018-12-17T02:48:12.760Z,12.87
2018-12-17T02:50:41.504Z,11.13
2018-12-17T02:53:10.333Z,10.57
2018-12-17T02:55:39.427Z,10.67
2018-12-17T02:58:08.093Z,9.43
2018-12-17T03:00:36.938Z,11.73
2018-12-17T03:03:05.841Z,8.00
2018-12-17T03:05:34.782Z,10.40
2018-12-17T03:08:03.877Z,9.77
2018-12-17T03:10:33.074Z,10.27
2018-12-17T03:13:01.759Z,10.73
2018-12-17T03:15:30.545Z,9.77
2018-12-17T03:17:59.169Z,10.47
2018-12-17T03:20:28.135Z,9.07
2018-12-17T03:22:57.075Z,12.00
2018-12-17T03:25:25.754Z,9.50
2018-12-17T03:27:54.551Z,9.57
2018-12-17T03:30:23.151Z,10.27
2018-12-17T03:32:51.811Z,12.70
2018-12-17T03:35:20.655Z,9.97
2018-12-17T03:37:49.289Z,9.00
2018-12-17T03:40:18.049Z,12.07
2018-12-17T03:42:46.682Z,10.67
2018-12-17T03:45:15.464Z,9.17
2018-12-17T03:47:44.373Z,11.17
2018-12-17T03:50:13.253Z,9.63
2018-12-17T03:52:41.987Z,10.17
2018-12-17T03:55:10.833Z,12.87
2018-12-17T03:57:39.523Z,10.07
2018-12-17T04:00:08.524Z,11.03
2018-12-17T04:02:46.583Z,14.07
2018-12-17T04:05:22.995Z,9.83
2018-12-17T04:08:00.646Z,10.73
2018-12-17T04:10:31.748Z,13.97
2018-12-17T04:13:00.362Z,10.67
2018-12-17T04:15:29.198Z,9.87
2018-12-17T04:17:58.165Z,10.80
2018-12-17T04:20:26.717Z,10.17
2018-12-17T04:22:55.449Z,10.50
2018-12-17T04:25:24.153Z,12.97
2018-12-17T04:27:53.079Z,12.17
2018-12-17T04:30:21.785Z,11.80
2018-12-17T04:32:50.342Z,14.53
2018-12-17T04:35:18.950Z,12.03
2018-12-17T04:37:47.654Z,12.03
2018-12-17T04:40:16.405Z,9.63
2018-12-17T04:42:45.109Z,10.77
2018-12-17T04:45:13.825Z,9.83
2018-12-17T04:47:42.565Z,11.33
2018-12-17T04:50:11.266Z,11.03
2018-12-17T04:52:39.889Z,10.57
2018-12-17T04:55:08.592Z,11.17
2018-12-17T04:57:37.638Z,11.00
2018-12-17T05:00:07.263Z,10.50
2018-12-17T05:02:35.931Z,12.67
2018-12-17T05:05:05.437Z,9.70
2018-12-17T05:07:34.244Z,9.63
2018-12-17T05:10:03.153Z,11.37
2018-12-17T05:12:32.149Z,11.33
2018-12-17T05:15:00.759Z,11.40
2018-12-17T05:17:29.354Z,11.93
2018-12-17T05:19:57.896Z,10.70
2018-12-17T05:22:26.498Z,15.47
2018-12-17T05:24:55.110Z,10.93
2018-12-17T05:27:23.724Z,13.33
2018-12-17T05:29:52.409Z,11.67
2018-12-17T05:32:21.110Z,10.47
2018-12-17T05:34:49.886Z,11.50
2018-12-17T05:37:18.845Z,12.37
2018-12-17T05:39:47.859Z,11.97
2018-12-17T05:42:16.554Z,10.77
2018-12-17T05:44:45.442Z,11.37
2018-12-17T05:47:14.423Z,9.77
2018-12-17T05:49:43.155Z,13.13
2018-12-17T05:52:12.070Z,13.50
2018-12-17T05:54:47.350Z,10.70
2018-12-17T05:57:16.163Z,12.03
2018-12-17T05:59:44.928Z,11.53
2018-12-17T06:02:13.594Z,12.33
2018-12-17T06:04:42.361Z,10.73
2018-12-17T06:07:11.235Z,10.70
2018-12-17T06:09:40.050Z,10.00
2018-12-17T06:12:08.576Z,10.10
2018-12-17T06:14:37.415Z,13.50
2018-12-17T06:17:06.297Z,10.03
2018-12-17T06:19:34.986Z,12.47
2018-12-17T06:22:03.918Z,13.20
2018-12-17T06:24:32.639Z,11.03
2018-12-17T06:27:01.253Z,11.43
2018-12-17T06:29:35.384Z,12.57
2018-12-17T06:32:00.531Z,9.43
2018-12-17T06:34:29.100Z,13.57
2018-12-17T06:36:57.873Z,11.73
2018-12-17T06:39:33.308Z,16.17
2018-12-17T06:42:02.199Z,14.27
2018-12-17T06:44:30.954Z,12.33
2018-12-17T06:46:59.650Z,11.63
2018-12-17T06:49:28.438Z,11.43
2018-12-17T06:51:57.577Z,13.47
2018-12-17T06:54:26.415Z,13.30
2018-12-17T06:56:55.225Z,13.47
2018-12-17T06:59:23.851Z,12.60
2018-12-17T07:01:52.909Z,9.40
2018-12-17T07:04:21.642Z,10.47
2018-12-17T07:06:50.380Z,11.67
2018-12-17T07:09:19.251Z,11.70
2018-12-17T07:11:48.160Z,11.73
2018-12-17T07:14:16.943Z,12.60
2018-12-17T07:16:45.927Z,9.43
2018-12-17T07:19:14.775Z,12.43
2018-12-17T07:21:43.823Z,10.47
2018-12-17T07:24:12.486Z,12.90
2018-12-17T07:26:41.298Z,10.40
2018-12-17T07:29:10.377Z,11.00
2018-12-17T07:31:39.135Z,10.47
2018-12-17T07:34:08.374Z,11.27
2018-12-17T07:36:38.084Z,14.07
2018-12-17T07:39:08.491Z,11.17
2018-12-17T07:41:37.690Z,11.03
2018-12-17T07:44:06.599Z,12.20
2018-12-17T07:46:35.490Z,12.00
2018-12-17T07:49:04.190Z,12.60
2018-12-17T07:51:32.917Z,11.57
2018-12-17T07:54:01.850Z,11.90
2018-12-17T07:56:31.813Z,8.03
2018-12-17T07:59:00.709Z,11.47
2018-12-17T08:01:29.482Z,7.77
2018-12-17T08:03:58.057Z,8.60
2018-12-17T08:06:26.610Z,7.57
2018-12-17T08:08:55.426Z,8.57
2018-12-17T08:11:24.262Z,10.13
2018-12-17T08:13:52.934Z,12.60
2018-12-17T08:16:21.653Z,11.47
2018-12-17T08:18:50.445Z,9.90
2018-12-17T08:21:19.306Z,13.77
2018-12-17T08:23:48.090Z,9.80
2018-12-17T08:26:16.691Z,11.03
2018-12-17T08:28:45.472Z,9.97
2018-12-17T08:31:14.125Z,11.30
2018-12-17T08:33:42.765Z,11.03
2018-12-17T08:36:11.543Z,9.33
2018-12-17T08:38:40.131Z,10.67
2018-12-17T08:41:09.105Z,9.10
2018-12-17T08:43:37.714Z,10.70
2018-12-17T08:46:06.704Z,11.33
2018-12-17T08:48:35.402Z,7.63
2018-12-17T08:51:04.165Z,11.10
2018-12-17T08:53:33.018Z,8.33
2018-12-17T08:56:02.271Z,12.73
2018-12-17T08:58:31.263Z,16.17
2018-12-17T09:00:59.870Z,13.27
2018-12-17T09:03:28.620Z,11.63
2018-12-17T09:05:57.337Z,10.07
2018-12-17T09:08:26.062Z,11.40
2018-12-17T09:10:54.749Z,12.37
2018-12-17T09:13:23.453Z,13.87
2018-12-17T09:15:52.257Z,14.77
2018-12-17T09:18:21.137Z,10.87
2018-12-17T09:20:49.762Z,12.43
2018-12-17T09:23:18.382Z,12.30
2018-12-17T09:25:47.289Z,10.40
2018-12-17T09:28:16.180Z,8.33
2018-12-17T09:30:44.781Z,11.90
2018-12-17T09:33:13.483Z,9.33
2018-12-17T09:35:42.062Z,11.10
2018-12-17T09:38:10.983Z,10.60
2018-12-17T09:40:39.490Z,11.57
2018-12-17T09:43:08.801Z,7.53
2018-12-17T09:45:37.575Z,10.80
2018-12-17T09:48:06.303Z,10.30
2018-12-17T09:50:35.061Z,11.93
2018-12-17T09:53:03.951Z,11.37
2018-12-17T09:55:33.400Z,12.37
2018-12-17T09:58:02.008Z,11.30
2018-12-17T10:00:30.694Z,10.57
2018-12-17T10:02:59.209Z,10.37
2018-12-17T10:05:28.299Z,11.90
2018-12-17T10:07:57.002Z,7.40
2018-12-17T10:10:25.599Z,12.40
2018-12-17T10:12:54.362Z,11.90
2018-12-17T10:15:23.242Z,14.37
2018-12-17T10:17:51.790Z,12.00
2018-12-17T10:20:20.431Z,14.07
2018-12-17T10:22:49.154Z,10.00
2018-12-17T10:25:17.771Z,12.10
2018-12-17T10:27:46.568Z,10.00
2018-12-17T10:30:15.351Z,14.47
2018-12-17T10:32:43.895Z,11.30
2018-12-17T10:35:12.727Z,13.90
2018-12-17T10:37:41.429Z,10.63
2018-12-17T10:40:10.212Z,14.87
2018-12-17T10:42:39.191Z,11.77
2018-12-17T10:45:08.534Z,14.10
2018-12-17T10:47:37.275Z,13.87
2018-12-17T10:50:06.729Z,13.67
2018-12-17T10:52:35.410Z,12.57
2018-12-17T10:55:04.525Z,12.90
2018-12-17T10:57:33.134Z,11.87
2018-12-17T11:00:01.944Z,12.67
2018-12-17T11:02:33.708Z,14.30
2018-12-17T11:05:12.498Z,14.10
2018-12-17T11:07:40.862Z,12.33
2018-12-17T11:10:10.439Z,14.50
2018-12-17T11:12:45.552Z,15.53
2018-12-17T11:15:14.410Z,8.83
2018-12-17T11:17:43.237Z,9.60
2018-12-17T11:20:13.536Z,10.63
2018-12-17T11:22:42.269Z,13.90
2018-12-17T11:25:11.203Z,12.87
2018-12-17T11:27:46.465Z,13.70
2018-12-17T11:30:15.170Z,17.53
2018-12-17T11:32:43.903Z,14.80
2018-12-17T11:35:12.848Z,10.97
2018-12-17T11:37:41.557Z,11.90
2018-12-17T11:40:10.383Z,10.47
2018-12-17T11:42:39.140Z,10.33
2018-12-17T11:45:08.191Z,11.63
2018-12-17T11:47:36.811Z,17.10
2018-12-17T11:50:05.727Z,15.67
2018-12-17T11:52:34.323Z,10.00
2018-12-17T11:55:03.128Z,13.37
2018-12-17T11:58:10.683Z,12.63
2018-12-17T12:00:41.677Z,10.57
2018-12-17T12:03:10.534Z,17.40
2018-12-17T12:05:39.218Z,20.50
2018-12-17T12:08:08.011Z,19.33
2018-12-17T12:10:36.670Z,16.83
2018-12-17T12:13:05.340Z,15.00
2018-12-17T12:15:34.092Z,18.60
2018-12-17T12:18:02.740Z,20.23
2018-12-17T12:20:31.458Z,17.37
2018-12-17T12:23:00.071Z,18.07
2018-12-17T12:25:28.821Z,17.90
2018-12-17T12:27:57.653Z,16.70
2018-12-17T12:30:26.413Z,26.27
2018-12-17T12:32:55.076Z,19.03
2018-12-17T12:35:23.950Z,18.03
2018-12-17T12:37:52.557Z,16.57
2018-12-17T12:40:21.243Z,15.27
2018-12-17T12:42:51.760Z,17.03
2018-12-17T12:45:20.864Z,16.23
2018-12-17T12:47:49.542Z,15.27
2018-12-17T12:50:18.438Z,14.80
2018-12-17T12:52:47.226Z,11.83
2018-12-17T12:55:16.035Z,12.93
2018-12-17T12:57:44.725Z,13.07
2018-12-17T13:00:14.307Z,11.77
2018-12-17T13:02:43.165Z,11.27
2018-12-17T13:05:12.057Z,11.23
2018-12-17T13:07:40.890Z,11.03
2018-12-17T13:10:10.888Z,9.57
2018-12-17T13:12:39.479Z,8.93
2018-12-17T13:15:09.449Z,9.67
2018-12-17T13:17:38.322Z,9.23
2018-12-17T13:20:08.550Z,11.90
2018-12-17T13:22:37.352Z,13.30
2018-12-17T13:25:08.880Z,13.90
2018-12-17T13:27:37.586Z,12.20
2018-12-17T13:30:08.134Z,19.67
2018-12-17T13:32:36.676Z,13.70
2018-12-17T13:35:06.410Z,13.43
2018-12-17T13:37:34.907Z,12.83
2018-12-17T13:40:03.899Z,14.83
2018-12-17T13:42:32.603Z,13.33
2018-12-17T13:45:02.003Z,14.40
2018-12-17T13:47:31.081Z,17.50
2018-12-17T13:50:04.069Z,15.83
2018-12-17T13:52:38.093Z,15.97
2018-12-17T13:55:06.838Z,16.27
2018-12-17T13:57:35.549Z,13.40
2018-12-17T14:00:04.662Z,14.50
2018-12-17T14:02:33.392Z,13.73
2018-12-17T14:05:02.228Z,16.97
2018-12-17T14:07:31.026Z,13.47
2018-12-17T14:10:04.811Z,12.93
2018-12-17T14:12:33.393Z,11.37
2018-12-17T14:15:02.201Z,11.00
2018-12-17T14:17:36.083Z,5.13
2018-12-17T14:20:12.165Z,4.57
2018-12-17T14:22:41.051Z,7.33
2018-12-17T14:25:10.061Z,8.33
2018-12-17T14:27:38.781Z,5.97
2018-12-17T14:30:09.262Z,3.90
2018-12-17T14:32:38.252Z,4.83
2018-12-17T14:35:07.023Z,3.70
2018-12-17T14:37:40.748Z,3.77
2018-12-17T14:40:09.360Z,5.90
2018-12-17T14:42:38.102Z,6.73
2018-12-17T14:45:07.709Z,5.80
2018-12-17T14:47:36.275Z,5.97
2018-12-17T14:50:05.529Z,5.30
2018-12-17T14:52:34.145Z,6.40
2018-12-17T14:55:02.769Z,3.53
2018-12-17T14:57:31.539Z,6.70
2018-12-17T15:00:00.193Z,3.57
2018-12-17T15:02:28.984Z,4.57
2018-12-17T15:04:57.661Z,4.17
2018-12-17T15:07:26.554Z,4.53
2018-12-17T15:09:55.174Z,3.27
2018-12-17T15:12:23.958Z,3.17
2018-12-17T15:14:52.463Z,3.50
2018-12-17T15:17:21.209Z,3.17
2018-12-17T15:19:50.201Z,2.60
2018-12-17T15:22:18.804Z,2.37
2018-12-17T15:24:47.467Z,2.73
2018-12-17T15:27:16.671Z,2.40
2018-12-17T15:29:45.591Z,4.10
2018-12-17T15:32:14.373Z,13.30
2018-12-17T15:34:43.269Z,3.53
2018-12-17T15:37:11.991Z,5.40
2018-12-17T15:39:40.724Z,4.40
2018-12-17T15:42:09.355Z,2.20
2018-12-17T15:44:37.953Z,2.73
2018-12-17T15:47:06.694Z,21.97
2018-12-17T15:49:35.320Z,3.20
2018-12-17T15:52:04.311Z,2.10
2018-12-17T15:54:32.952Z,2.53
2018-12-17T15:57:01.719Z,1.77
2018-12-17T15:59:30.691Z,4.17
2018-12-17T16:01:59.418Z,1.50
2018-12-17T16:04:28.194Z,1.87
2018-12-17T16:06:56.957Z,1.33
2018-12-17T16:09:25.571Z,3.13
2018-12-17T16:11:54.246Z,9.37
2018-12-17T16:14:22.884Z,4.40
2018-12-17T16:16:51.462Z,2.70
2018-12-17T16:19:20.155Z,2.20
2018-12-17T16:21:48.903Z,2.37
2018-12-17T16:24:17.687Z,2.97
2018-12-17T16:26:46.409Z,7.80
2018-12-17T16:29:15.058Z,3.80
2018-12-17T16:31:43.892Z,3.10
2018-12-17T16:34:12.578Z,2.83
2018-12-17T16:36:41.568Z,2.23
2018-12-17T16:39:10.308Z,2.27
2018-12-17T16:41:39.064Z,3.00
2018-12-17T16:44:07.679Z,2.30
2018-12-17T16:46:36.409Z,2.50
2018-12-17T16:49:05.127Z,2.60
2018-12-17T16:51:33.930Z,5.03
2018-12-17T16:54:02.583Z,5.47
2018-12-17T16:56:31.135Z,3.20
2018-12-17T16:58:59.795Z,3.60
2018-12-17T17:01:28.585Z,3.57
2018-12-17T17:03:57.198Z,3.40
2018-12-17T17:06:26.153Z,3.00
2018-12-17T17:08:54.924Z,2.80
2018-12-17T17:11:23.566Z,2.87
2018-12-17T17:13:52.639Z,3.23
2018-12-17T17:16:21.347Z,2.23
2018-12-17T17:18:50.103Z,3.03
2018-12-17T17:21:18.807Z,4.43
2018-12-17T17:23:47.642Z,3.50
2018-12-17T17:26:16.287Z,2.37
2018-12-17T17:28:45.038Z,2.30
2018-12-17T17:31:13.831Z,4.10
2018-12-17T17:33:42.498Z,2.57
2018-12-17T17:36:11.293Z,2.27
2018-12-17T17:38:40.059Z,3.47
2018-12-17T17:41:08.874Z,2.40
2018-12-17T17:43:37.497Z,2.27
2018-12-17T17:46:06.106Z,3.57
2018-12-17T17:48:34.869Z,2.63
2018-12-17T17:51:03.602Z,4.83
2018-12-17T17:53:32.305Z,4.27
2018-12-17T17:56:00.997Z,2.57
2018-12-17T17:58:29.754Z,3.93
2018-12-17T18:00:58.575Z,2.80
2018-12-17T18:03:27.452Z,4.97
2018-12-17T18:05:56.135Z,4.80
2018-12-17T18:08:25.108Z,12.30
2018-12-17T18:10:53.705Z,3.70
2018-12-17T18:13:22.843Z,3.90
2018-12-17T18:15:51.546Z,3.37
2018-12-17T18:18:20.259Z,4.67
2018-12-17T18:20:48.895Z,5.93
2018-12-17T18:23:17.531Z,4.93
2018-12-17T18:25:46.314Z,3.37
2018-12-17T18:28:15.051Z,3.30
2018-12-17T18:30:43.805Z,3.00
2018-12-17T18:33:12.560Z,9.93
2018-12-17T18:35:41.374Z,10.53
2018-12-17T18:38:10.147Z,4.80
2018-12-17T18:40:38.955Z,10.50
2018-12-17T18:43:07.801Z,5.80
2018-12-17T18:45:36.235Z,3.77
2018-12-17T18:48:05.103Z,5.30
2018-12-17T18:50:34.708Z,4.40
2018-12-17T18:53:03.455Z,5.83
2018-12-17T18:55:31.975Z,7.37
2018-12-17T18:58:00.939Z,5.93
2018-12-17T19:00:29.768Z,5.13
2018-12-17T19:02:58.405Z,7.00
2018-12-17T19:05:27.126Z,5.97
2018-12-17T19:07:55.813Z,4.43
2018-12-17T19:10:26.585Z,7.23
2018-12-17T19:12:55.158Z,8.47
2018-12-17T19:15:23.898Z,8.20
2018-12-17T19:17:52.595Z,8.33
2018-12-17T19:20:21.299Z,6.37
2018-12-17T19:22:50.086Z,6.57
2018-12-17T19:25:18.710Z,5.37
2018-12-17T19:27:47.356Z,4.53
2018-12-17T19:30:16.265Z,16.30
2018-12-17T19:32:45.118Z,6.17
2018-12-17T19:35:13.769Z,4.53
2018-12-17T19:37:43.844Z,6.73
2018-12-17T19:40:12.985Z,5.13
2018-12-17T19:42:41.575Z,3.57
2018-12-17T19:45:10.294Z,8.77
2018-12-17T19:47:45.539Z,7.03
2018-12-17T19:50:14.321Z,5.37
2018-12-17T19:52:43.114Z,7.27
2018-12-17T19:55:11.701Z,4.87
2018-12-17T19:57:40.263Z,4.83
2018-12-17T20:00:10.164Z,4.07
2018-12-17T20:02:38.873Z,6.40
2018-12-17T20:05:07.552Z,8.60
2018-12-17T20:07:36.199Z,10.37
2018-12-17T20:10:07.802Z,9.43
2018-12-17T20:12:36.665Z,5.77
2018-12-17T20:15:05.738Z,8.40
2018-12-17T20:17:34.335Z,5.75
2018-12-17T20:20:03.274Z,9.30
2018-12-17T20:22:31.940Z,5.10
2018-12-17T20:25:00.282Z,3.70
2018-12-17T20:27:28.893Z,8.73
2018-12-17T20:29:57.692Z,4.77
2018-12-17T20:32:26.459Z,7.30
2018-12-17T20:34:55.167Z,8.43
2018-12-17T20:37:23.885Z,3.60
2018-12-17T20:39:52.641Z,7.80
2018-12-17T20:42:21.152Z,7.00
2018-12-17T20:44:49.805Z,6.33
2018-12-17T20:47:18.540Z,8.08
2018-12-17T20:49:47.179Z,8.50
2018-12-17T20:52:16.157Z,9.27
2018-12-17T20:54:44.893Z,6.50
2018-12-17T20:57:14.663Z,5.20
2018-12-17T20:59:43.366Z,5.47
2018-12-17T21:02:12.208Z,4.33
2018-12-17T21:04:40.907Z,7.47
2018-12-17T21:07:10.236Z,7.00
2018-12-17T21:09:39.047Z,6.77
2018-12-17T21:12:07.802Z,7.13
2018-12-17T21:14:36.689Z,5.50
2018-12-17T21:17:05.071Z,5.23
2018-12-17T21:19:33.941Z,5.23
2018-12-17T21:22:02.590Z,3.67
2018-12-17T21:24:31.219Z,6.07
2018-12-17T21:27:00.038Z,5.20
2018-12-17T21:29:28.693Z,5.10
2018-12-17T21:31:57.443Z,5.53
2018-12-17T21:34:26.090Z,8.53
2018-12-17T21:36:54.938Z,6.67
2018-12-17T21:39:24.574Z,4.13
2018-12-17T21:41:53.439Z,9.20
2018-12-17T21:44:22.344Z,7.50
2018-12-17T21:46:52.851Z,7.43
2018-12-17T21:49:21.698Z,6.43
2018-12-17T21:51:50.221Z,5.97
2018-12-17T21:54:18.831Z,5.90
2018-12-17T21:56:47.680Z,4.10
2018-12-17T21:59:16.327Z,5.37
2018-12-17T22:01:44.970Z,7.27
2018-12-17T22:04:14.062Z,6.63
2018-12-17T22:06:42.656Z,5.33
2018-12-17T22:09:11.387Z,6.20
2018-12-17T22:11:42.971Z,7.63
2018-12-17T22:14:11.953Z,11.67
2018-12-17T22:16:40.750Z,6.77
2018-12-17T22:19:09.437Z,9.87
2018-12-17T22:21:38.676Z,6.67
2018-12-17T22:24:07.534Z,6.90
2018-12-17T22:26:36.273Z,5.23
2018-12-17T22:29:05.113Z,5.50
2018-12-17T22:31:33.710Z,6.40
2018-12-17T22:34:02.390Z,3.00
2018-12-17T22:36:31.068Z,3.53
2018-12-17T22:38:59.875Z,5.20
2018-12-17T22:41:28.634Z,3.10
2018-12-17T22:43:57.340Z,3.60
2018-12-17T22:46:26.124Z,3.00
2018-12-17T22:48:54.785Z,6.40
2018-12-17T22:51:23.308Z,4.40
2018-12-17T22:53:51.943Z,3.60
2018-12-17T22:56:20.557Z,5.47
2018-12-17T22:58:49.349Z,8.13
2018-12-17T23:01:18.124Z,4.87
2018-12-17T23:03:46.829Z,4.33
2018-12-17T23:06:15.557Z,5.13
2018-12-17T23:08:55.253Z,4.40
2018-12-17T23:11:36.813Z,3.57
2018-12-17T23:14:16.583Z,4.50
2018-12-17T23:16:56.228Z,5.77
2018-12-17T23:19:23.476Z,3.00
2018-12-17T23:21:52.223Z,4.57
2018-12-17T23:24:20.868Z,3.50
2018-12-17T23:26:49.807Z,2.73
2018-12-17T23:29:18.525Z,3.27
2018-12-17T23:31:52.676Z,3.50
2018-12-17T23:34:21.334Z,2.87
2018-12-17T23:36:49.930Z,3.07
2018-12-17T23:39:18.744Z,3.87
2018-12-17T23:41:47.725Z,3.47
2018-12-17T23:44:16.658Z,4.13
2018-12-17T23:46:45.669Z,2.70
2018-12-17T23:49:14.390Z,3.23
2018-12-17T23:51:43.142Z,4.33
2018-12-17T23:54:11.837Z,6.83
2018-12-17T23:56:40.717Z,4.10
2018-12-17T23:59:09.560Z,6.27
